Aérodrome :
LOGIN :

S'inscrire | Disclaimer

   EN    FR    IT 

 










Légende :    VFR   VFR Marginal   IFR   IFR Intensif   IFR Très Intensif
Visi : 
Plafond : 
>= 8 km
>= 3000ft
5 à 8 km
1000 à 3000 ft
1500m à 5 km
500 à 1000 ft
800 à 1500m
200 à 500 ft
< 800m
< 200 ft
Symboles :   Orages  Brouillard  Fortes neiges  Fortes précipitations  Vent > 20 kt
SIGMETs :   Divers  Orages  Givrage  Turbulence  Onde Orograph.  Cendres Volcan.







- Altitude de l'aérodrome : 348 ft
- Code IATA : STN
- Voir les cartes d'approche


EGSS - London Stansted

DERNIER METAR :
  • 170720Z AUTO 22013KT 9999 NCD 10/07 Q1019

METARs EXPIRÉS :
  • 170650Z AUTO 21010KT 9999 NCD 09/07 Q1019
  • 170620Z AUTO 22011KT 9999 NCD 09/07 Q1019
  • 170550Z AUTO 23010KT 9999 NCD 10/07 Q1018
  • 170520Z AUTO 22011KT 9999 NCD 10/07 Q1018
  • 170450Z AUTO 23012KT 9999 NCD 10/07 Q1018

TAF TAF EGSS
Valide du 17 à 06h jusqu'au 18 à 12h UTC


170502Z 1706/1812 22013KT 9999 FEW020
BECMG 1712/1715 28006KT
BECMG 1720/1723 04010KT
BECMG 1804/1807 BKN009
TEMPO 1804/1812 6000 -RADZ BKN004
PROB40
TEMPO 1806/1812 4000 RADZ
ATIS : +44 1279 669 325
Pas de NOTAMs connus pour ce terrain.
2 SIGMETs publiés pour la FIR London (EGTT) :
 
Turbulence forte
EGTT SIGMET 04 VALID 170500/170900 EGRR
EGTT LONDON FIR SEV TURB FCST N OF LINE N5230 W00530 - N5230 E00249 SFC/FL060 MOV N 15KT WKN=
Onde orographique forte
EGTT SIGMET 03 VALID 170500/170900 EGRR
EGTT LONDON FIR SEV MTW FCST WI N5220 W00530 - N5500 W00530 - N5500 E00115 - N5316 E00115 - N5124 W00259 - N5158 W00611 - N5220 W00530 FL030/200 MOV N 15KT WKN=



MET'MAP, la Météo Aéronautique d'un coup d'oeil ! - Copyright ORBIFLY Décembre 2007 - Disclaimer

ORBIFLY MET'MAP TEAM :

Programmation & Développement : Alexandra Zaïnal
Conception & Développement : Baudouin d'Aumeries
Co-Programmation & Développement : Marc-Olivier Méhu
Soutien technique & logistique : Manuel Goepfert

Contact : metmap@orbifly.com




SOURCES & CREDITS :

   NOAA